sensor_id;sensor_type;location;lat;lon;timestamp;pressure;altitude;pressure_sealevel;temperature;humidity
3444;BME280;1736;52.068;6.968;2023-03-14T00:01:50;98446.38;;;10.93;94.69
3444;BME280;1736;52.068;6.968;2023-03-14T00:04:16;98451.59;;;11.01;94.96
3444;BME280;1736;52.068;6.968;2023-03-14T00:06:44;98441.84;;;11.08;94.27
3444;BME280;1736;52.068;6.968;2023-03-14T00:09:12;98438.66;;;11.12;94.41
3444;BME280;1736;52.068;6.968;2023-03-14T00:11:39;98427.31;;;11.04;93.96
3444;BME280;1736;52.068;6.968;2023-03-14T00:14:05;98417.25;;;11.14;93.43
3444;BME280;1736;52.068;6.968;2023-03-14T00:16:32;98421.72;;;11.13;93.54
3444;BME280;1736;52.068;6.968;2023-03-14T00:18:59;98416.03;;;11.16;92.86
3444;BME280;1736;52.068;6.968;2023-03-14T00:21:25;98424.44;;;11.20;92.51
3444;BME280;1736;52.068;6.968;2023-03-14T00:23:53;98421.59;;;11.21;92.53
3444;BME280;1736;52.068;6.968;2023-03-14T00:26:21;98417.06;;;11.15;92.65
3444;BME280;1736;52.068;6.968;2023-03-14T00:28:51;98404.97;;;11.13;92.74
3444;BME280;1736;52.068;6.968;2023-03-14T00:31:18;98391.59;;;11.06;92.60
3444;BME280;1736;52.068;6.968;2023-03-14T00:33:45;98394.09;;;11.08;92.48
3444;BME280;1736;52.068;6.968;2023-03-14T00:36:13;98393.00;;;11.02;92.55
3444;BME280;1736;52.068;6.968;2023-03-14T00:38:41;98399.31;;;11.01;92.74
3444;BME280;1736;52.068;6.968;2023-03-14T00:41:10;98378.66;;;10.97;92.76
3444;BME280;1736;52.068;6.968;2023-03-14T00:43:37;98368.78;;;10.91;92.78
3444;BME280;1736;52.068;6.968;2023-03-14T00:46:05;98362.47;;;10.92;92.79
3444;BME280;1736;52.068;6.968;2023-03-14T00:48:32;98350.97;;;10.85;93.32
3444;BME280;1736;52.068;6.968;2023-03-14T00:50:58;98353.06;;;10.75;93.80
3444;BME280;1736;52.068;6.968;2023-03-14T00:53:25;98343.72;;;10.79;93.65
3444;BME280;1736;52.068;6.968;2023-03-14T00:55:52;98359.94;;;10.69;93.82
3444;BME280;1736;52.068;6.968;2023-03-14T00:58:20;98371.13;;;10.65;94.10
3444;BME280;1736;52.068;6.968;2023-03-14T01:00:46;98369.56;;;10.56;94.65
3444;BME280;1736;52.068;6.968;2023-03-14T01:03:14;98368.81;;;10.62;94.50
3444;BME280;1736;52.068;6.968;2023-03-14T01:05:41;98377.53;;;10.56;94.37
3444;BME280;1736;52.068;6.968;2023-03-14T01:08:08;98377.69;;;10.69;93.66
3444;BME280;1736;52.068;6.968;2023-03-14T01:10:34;98369.63;;;10.77;93.18
3444;BME280;1736;52.068;6.968;2023-03-14T01:13:03;98368.19;;;10.74;93.27
3444;BME280;1736;52.068;6.968;2023-03-14T01:15:31;98379.97;;;10.86;93.07
3444;BME280;1736;52.068;6.968;2023-03-14T01:17:58;98374.53;;;10.80;93.12
3444;BME280;1736;52.068;6.968;2023-03-14T01:20:25;98381.22;;;10.76;94.35
3444;BME280;1736;52.068;6.968;2023-03-14T01:22:51;98386.28;;;10.71;96.37
3444;BME280;1736;52.068;6.968;2023-03-14T01:25:18;98382.06;;;10.62;97.92
3444;BME280;1736;52.068;6.968;2023-03-14T01:27:45;98370.09;;;10.66;97.45
3444;BME280;1736;52.068;6.968;2023-03-14T01:30:12;98377.88;;;10.52;98.89
3444;BME280;1736;52.068;6.968;2023-03-14T01:32:40;98381.81;;;10.42;100.00
3444;BME280;1736;52.068;6.968;2023-03-14T01:35:07;98372.41;;;10.39;100.00
3444;BME280;1736;52.068;6.968;2023-03-14T01:37:34;98379.06;;;10.35;100.00
3444;BME280;1736;52.068;6.968;2023-03-14T01:40:01;98372.09;;;10.34;100.00
3444;BME280;1736;52.068;6.968;2023-03-14T01:42:29;98382.63;;;10.28;100.00
3444;BME280;1736;52.068;6.968;2023-03-14T01:44:57;98382.00;;;10.26;100.00
3444;BME280;1736;52.068;6.968;2023-03-14T01:47:24;98382.09;;;10.32;100.00
3444;BME280;1736;52.068;6.968;2023-03-14T01:49:56;98369.84;;;10.31;100.00
3444;BME280;1736;52.068;6.968;2023-03-14T01:52:28;98367.97;;;10.17;100.00
3444;BME280;1736;52.068;6.968;2023-03-14T01:54:59;98374.13;;;10.18;100.00
3444;BME280;1736;52.068;6.968;2023-03-14T01:57:32;98372.41;;;10.25;100.00
3444;BME280;1736;52.068;6.968;2023-03-14T02:00:03;98361.16;;;10.23;100.00
3444;BME280;1736;52.068;6.968;2023-03-14T02:02:37;98359.41;;;10.30;100.00
3444;BME280;1736;52.068;6.968;2023-03-14T02:05:06;98365.81;;;10.35;99.12
3444;BME280;1736;52.068;6.968;2023-03-14T02:07:37;98362.25;;;10.43;98.92
3444;BME280;1736;52.068;6.968;2023-03-14T02:10:10;98360.03;;;10.46;97.97
3444;BME280;1736;52.068;6.968;2023-03-14T02:12:37;98355.66;;;10.53;95.87
3444;BME280;1736;52.068;6.968;2023-03-14T02:15:04;98362.34;;;10.49;94.21
3444;BME280;1736;52.068;6.968;2023-03-14T02:17:31;98357.03;;;10.49;94.66
3444;BME280;1736;52.068;6.968;2023-03-14T02:20:17;98359.78;;;10.41;94.89
3444;BME280;1736;52.068;6.968;2023-03-14T02:22:48;98355.00;;;10.37;93.60
3444;BME280;1736;52.068;6.968;2023-03-14T02:25:19;98348.56;;;10.39;92.40
3444;BME280;1736;52.068;6.968;2023-03-14T02:27:49;98370.91;;;10.37;92.79
3444;BME280;1736;52.068;6.968;2023-03-14T02:30:18;98366.88;;;10.41;93.12
3444;BME280;1736;52.068;6.968;2023-03-14T02:32:47;98365.00;;;10.35;94.91
3444;BME280;1736;52.068;6.968;2023-03-14T02:35:17;98367.28;;;10.52;94.45
3444;BME280;1736;52.068;6.968;2023-03-14T02:37:48;98360.69;;;10.48;94.55
3444;BME280;1736;52.068;6.968;2023-03-14T02:40:15;98357.38;;;10.46;95.27
3444;BME280;1736;52.068;6.968;2023-03-14T02:42:41;98361.59;;;10.41;95.15
3444;BME280;1736;52.068;6.968;2023-03-14T02:45:41;98358.41;;;10.45;93.47
3444;BME280;1736;52.068;6.968;2023-03-14T02:48:13;98361.06;;;10.45;93.72
3444;BME280;1736;52.068;6.968;2023-03-14T02:50:41;98359.50;;;10.51;91.86
3444;BME280;1736;52.068;6.968;2023-03-14T02:53:08;98360.34;;;10.52;90.92
3444;BME280;1736;52.068;6.968;2023-03-14T02:55:34;98350.19;;;10.55;91.03
3444;BME280;1736;52.068;6.968;2023-03-14T02:58:01;98354.47;;;10.41;92.35
3444;BME280;1736;52.068;6.968;2023-03-14T03:00:28;98352.91;;;10.47;92.95
3444;BME280;1736;52.068;6.968;2023-03-14T03:02:57;98359.06;;;10.48;94.35
3444;BME280;1736;52.068;6.968;2023-03-14T03:05:23;98358.66;;;10.36;95.27
3444;BME280;1736;52.068;6.968;2023-03-14T03:07:50;98363.88;;;10.29;96.84
3444;BME280;1736;52.068;6.968;2023-03-14T03:10:17;98360.97;;;10.24;97.59
3444;BME280;1736;52.068;6.968;2023-03-14T03:12:44;98359.59;;;10.14;99.47
3444;BME280;1736;52.068;6.968;2023-03-14T03:15:11;98365.81;;;9.98;100.00
3444;BME280;1736;52.068;6.968;2023-03-14T03:17:37;98349.44;;;9.80;100.00
3444;BME280;1736;52.068;6.968;2023-03-14T03:20:09;98361.13;;;9.71;100.00
3444;BME280;1736;52.068;6.968;2023-03-14T03:22:36;98361.66;;;9.67;100.00
3444;BME280;1736;52.068;6.968;2023-03-14T03:25:03;98356.41;;;9.59;100.00
3444;BME280;1736;52.068;6.968;2023-03-14T03:27:31;98358.66;;;9.47;100.00
3444;BME280;1736;52.068;6.968;2023-03-14T03:29:58;98356.66;;;9.49;100.00
3444;BME280;1736;52.068;6.968;2023-03-14T03:32:25;98356.38;;;9.44;100.00
3444;BME280;1736;52.068;6.968;2023-03-14T03:34:51;98355.78;;;9.34;100.00
3444;BME280;1736;52.068;6.968;2023-03-14T03:37:19;98354.50;;;9.30;100.00
3444;BME280;1736;52.068;6.968;2023-03-14T03:39:46;98342.44;;;9.28;100.00
3444;BME280;1736;52.068;6.968;2023-03-14T03:42:13;98337.97;;;9.28;100.00
3444;BME280;1736;52.068;6.968;2023-03-14T03:44:39;98349.56;;;9.27;100.00
3444;BME280;1736;52.068;6.968;2023-03-14T03:47:06;98344.16;;;9.21;100.00
3444;BME280;1736;52.068;6.968;2023-03-14T03:49:33;98349.16;;;9.16;100.00
3444;BME280;1736;52.068;6.968;2023-03-14T03:52:00;98359.84;;;9.22;100.00
3444;BME280;1736;52.068;6.968;2023-03-14T03:54:28;98360.75;;;9.29;100.00
3444;BME280;1736;52.068;6.968;2023-03-14T03:56:55;98343.84;;;9.16;100.00
3444;BME280;1736;52.068;6.968;2023-03-14T03:59:22;98351.25;;;9.20;100.00
3444;BME280;1736;52.068;6.968;2023-03-14T04:01:48;98348.59;;;9.20;100.00
3444;BME280;1736;52.068;6.968;2023-03-14T04:04:15;98343.13;;;9.22;100.00
3444;BME280;1736;52.068;6.968;2023-03-14T04:06:42;98350.78;;;9.17;100.00
3444;BME280;1736;52.068;6.968;2023-03-14T04:09:09;98354.59;;;9.14;100.00
3444;BME280;1736;52.068;6.968;2023-03-14T04:11:37;98358.88;;;9.15;100.00
3444;BME280;1736;52.068;6.968;2023-03-14T04:14:05;98357.94;;;9.08;100.00
3444;BME280;1736;52.068;6.968;2023-03-14T04:16:32;98356.63;;;9.04;100.00
3444;BME280;1736;52.068;6.968;2023-03-14T04:18:58;98349.81;;;9.10;100.00
3444;BME280;1736;52.068;6.968;2023-03-14T04:21:25;98359.13;;;9.06;100.00
3444;BME280;1736;52.068;6.968;2023-03-14T04:23:52;98350.41;;;8.97;100.00
3444;BME280;1736;52.068;6.968;2023-03-14T04:26:18;98342.66;;;8.96;100.00
3444;BME280;1736;52.068;6.968;2023-03-14T04:28:47;98335.06;;;8.93;100.00
3444;BME280;1736;52.068;6.968;2023-03-14T04:31:17;98336.53;;;8.95;100.00
3444;BME280;1736;52.068;6.968;2023-03-14T04:33:44;98332.06;;;8.96;100.00
3444;BME280;1736;52.068;6.968;2023-03-14T04:36:11;98339.88;;;8.89;100.00
3444;BME280;1736;52.068;6.968;2023-03-14T04:38:38;98331.25;;;8.95;100.00
3444;BME280;1736;52.068;6.968;2023-03-14T04:41:05;98343.13;;;8.99;100.00
3444;BME280;1736;52.068;6.968;2023-03-14T04:43:33;98336.31;;;9.05;100.00
3444;BME280;1736;52.068;6.968;2023-03-14T04:46:01;98329.00;;;9.07;100.00
3444;BME280;1736;52.068;6.968;2023-03-14T04:48:28;98309.69;;;9.06;100.00
3444;BME280;1736;52.068;6.968;2023-03-14T04:50:55;98310.19;;;9.02;100.00
3444;BME280;1736;52.068;6.968;2023-03-14T04:53:22;98312.34;;;9.06;100.00
3444;BME280;1736;52.068;6.968;2023-03-14T04:55:49;98315.31;;;9.03;100.00
3444;BME280;1736;52.068;6.968;2023-03-14T04:58:16;98312.44;;;9.13;100.00
3444;BME280;1736;52.068;6.968;2023-03-14T05:00:42;98312.28;;;9.14;100.00
3444;BME280;1736;52.068;6.968;2023-03-14T05:03:10;98297.75;;;9.10;100.00
3444;BME280;1736;52.068;6.968;2023-03-14T05:05:37;98315.25;;;9.11;100.00
3444;BME280;1736;52.068;6.968;2023-03-14T05:08:04;98305.28;;;9.21;100.00
3444;BME280;1736;52.068;6.968;2023-03-14T05:10:30;98304.09;;;9.24;100.00
3444;BME280;1736;52.068;6.968;2023-03-14T05:12:57;98317.78;;;9.27;100.00
3444;BME280;1736;52.068;6.968;2023-03-14T05:15:24;98317.16;;;9.25;100.00
3444;BME280;1736;52.068;6.968;2023-03-14T05:17:51;98298.94;;;9.30;100.00
3444;BME280;1736;52.068;6.968;2023-03-14T05:20:20;98300.91;;;9.28;100.00
3444;BME280;1736;52.068;6.968;2023-03-14T05:22:48;98308.22;;;9.26;100.00
3444;BME280;1736;52.068;6.968;2023-03-14T05:25:15;98291.84;;;9.23;100.00
3444;BME280;1736;52.068;6.968;2023-03-14T05:27:42;98293.16;;;9.27;100.00
3444;BME280;1736;52.068;6.968;2023-03-14T05:30:10;98288.88;;;9.26;100.00
3444;BME280;1736;52.068;6.968;2023-03-14T05:32:36;98289.59;;;9.20;100.00
3444;BME280;1736;52.068;6.968;2023-03-14T05:35:03;98277.66;;;9.24;100.00
3444;BME280;1736;52.068;6.968;2023-03-14T05:37:31;98277.75;;;9.30;100.00
3444;BME280;1736;52.068;6.968;2023-03-14T05:39:59;98290.31;;;9.28;100.00
3444;BME280;1736;52.068;6.968;2023-03-14T05:42:26;98285.59;;;9.24;100.00
3444;BME280;1736;52.068;6.968;2023-03-14T05:44:53;98284.47;;;9.18;100.00
3444;BME280;1736;52.068;6.968;2023-03-14T05:47:19;98280.47;;;9.22;100.00
3444;BME280;1736;52.068;6.968;2023-03-14T05:49:48;98280.63;;;9.21;100.00
3444;BME280;1736;52.068;6.968;2023-03-14T05:52:15;98287.75;;;9.20;100.00
3444;BME280;1736;52.068;6.968;2023-03-14T05:54:43;98292.16;;;9.28;100.00
3444;BME280;1736;52.068;6.968;2023-03-14T05:57:10;98295.91;;;9.33;100.00
3444;BME280;1736;52.068;6.968;2023-03-14T05:59:36;98291.28;;;9.35;100.00
3444;BME280;1736;52.068;6.968;2023-03-14T06:02:03;98283.06;;;9.30;100.00
3444;BME280;1736;52.068;6.968;2023-03-14T06:04:29;98278.94;;;9.28;100.00
3444;BME280;1736;52.068;6.968;2023-03-14T06:06:56;98284.63;;;9.39;100.00
3444;BME280;1736;52.068;6.968;2023-03-14T06:09:23;98275.22;;;9.37;100.00
3444;BME280;1736;52.068;6.968;2023-03-14T06:11:51;98277.44;;;9.48;99.96
3444;BME280;1736;52.068;6.968;2023-03-14T06:14:17;98279.59;;;9.44;99.78
3444;BME280;1736;52.068;6.968;2023-03-14T06:16:44;98278.59;;;9.45;99.96
3444;BME280;1736;52.068;6.968;2023-03-14T06:19:13;98284.38;;;9.49;99.61
3444;BME280;1736;52.068;6.968;2023-03-14T06:21:39;98283.47;;;9.56;99.43
3444;BME280;1736;52.068;6.968;2023-03-14T06:24:06;98282.47;;;9.57;99.02
3444;BME280;1736;52.068;6.968;2023-03-14T06:26:36;98293.34;;;9.62;99.20
3444;BME280;1736;52.068;6.968;2023-03-14T06:29:04;98288.59;;;9.58;99.12
3444;BME280;1736;52.068;6.968;2023-03-14T06:31:31;98286.47;;;9.53;100.00
3444;BME280;1736;52.068;6.968;2023-03-14T06:33:58;98284.03;;;9.52;100.00
3444;BME280;1736;52.068;6.968;2023-03-14T06:36:25;98282.44;;;9.43;100.00
3444;BME280;1736;52.068;6.968;2023-03-14T06:38:51;98285.47;;;9.40;100.00
3444;BME280;1736;52.068;6.968;2023-03-14T06:41:18;98288.56;;;9.43;100.00
3444;BME280;1736;52.068;6.968;2023-03-14T06:43:45;98288.09;;;9.40;100.00
3444;BME280;1736;52.068;6.968;2023-03-14T06:46:13;98299.38;;;9.34;100.00
3444;BME280;1736;52.068;6.968;2023-03-14T06:48:40;98298.81;;;9.24;100.00
3444;BME280;1736;52.068;6.968;2023-03-14T06:51:07;98296.69;;;9.19;100.00
3444;BME280;1736;52.068;6.968;2023-03-14T06:53:33;98308.91;;;9.20;100.00
3444;BME280;1736;52.068;6.968;2023-03-14T06:56:00;98304.44;;;9.21;100.00
3444;BME280;1736;52.068;6.968;2023-03-14T06:58:27;98307.78;;;9.15;100.00
3444;BME280;1736;52.068;6.968;2023-03-14T07:00:53;98298.50;;;9.19;100.00
3444;BME280;1736;52.068;6.968;2023-03-14T07:03:23;98293.97;;;9.27;100.00
3444;BME280;1736;52.068;6.968;2023-03-14T07:05:49;98305.97;;;9.38;100.00
3444;BME280;1736;52.068;6.968;2023-03-14T07:08:16;98297.59;;;9.49;100.00
3444;BME280;1736;52.068;6.968;2023-03-14T07:10:43;98298.91;;;9.53;100.00
3444;BME280;1736;52.068;6.968;2023-03-14T07:13:10;98301.47;;;9.61;100.00
3444;BME280;1736;52.068;6.968;2023-03-14T07:15:39;98309.91;;;9.79;100.00
3444;BME280;1736;52.068;6.968;2023-03-14T07:18:05;98316.47;;;9.83;100.00
3444;BME280;1736;52.068;6.968;2023-03-14T07:20:33;98313.81;;;9.83;100.00
3444;BME280;1736;52.068;6.968;2023-03-14T07:23:00;98308.00;;;9.87;100.00
3444;BME280;1736;52.068;6.968;2023-03-14T07:25:28;98316.13;;;9.86;100.00
3444;BME280;1736;52.068;6.968;2023-03-14T07:27:54;98317.22;;;9.91;100.00
3444;BME280;1736;52.068;6.968;2023-03-14T07:30:21;98316.97;;;9.86;100.00
3444;BME280;1736;52.068;6.968;2023-03-14T07:32:48;98305.34;;;9.87;100.00
3444;BME280;1736;52.068;6.968;2023-03-14T07:35:14;98316.13;;;9.86;100.00
3444;BME280;1736;52.068;6.968;2023-03-14T07:37:43;98312.38;;;9.80;100.00
3444;BME280;1736;52.068;6.968;2023-03-14T07:40:10;98322.25;;;9.86;100.00
3444;BME280;1736;52.068;6.968;2023-03-14T07:42:40;98323.06;;;9.87;100.00
3444;BME280;1736;52.068;6.968;2023-03-14T07:45:07;98325.34;;;9.75;100.00
3444;BME280;1736;52.068;6.968;2023-03-14T07:47:34;98321.22;;;9.73;100.00
3444;BME280;1736;52.068;6.968;2023-03-14T07:50:00;98322.88;;;9.74;100.00
3444;BME280;1736;52.068;6.968;2023-03-14T07:52:27;98328.44;;;9.79;100.00
3444;BME280;1736;52.068;6.968;2023-03-14T07:54:55;98331.50;;;9.90;100.00
3444;BME280;1736;52.068;6.968;2023-03-14T07:57:22;98333.66;;;9.87;100.00
3444;BME280;1736;52.068;6.968;2023-03-14T07:59:50;98328.59;;;9.77;100.00
3444;BME280;1736;52.068;6.968;2023-03-14T08:02:16;98335.56;;;9.78;100.00
3444;BME280;1736;52.068;6.968;2023-03-14T08:04:45;98340.50;;;9.81;100.00
3444;BME280;1736;52.068;6.968;2023-03-14T08:07:12;98340.88;;;9.78;100.00
3444;BME280;1736;52.068;6.968;2023-03-14T08:09:38;98339.88;;;9.79;100.00
3444;BME280;1736;52.068;6.968;2023-03-14T08:12:06;98335.94;;;9.75;100.00
3444;BME280;1736;52.068;6.968;2023-03-14T08:14:33;98335.19;;;9.81;100.00
3444;BME280;1736;52.068;6.968;2023-03-14T08:17:00;98329.00;;;9.74;100.00
3444;BME280;1736;52.068;6.968;2023-03-14T08:19:27;98345.78;;;9.81;100.00
3444;BME280;1736;52.068;6.968;2023-03-14T08:21:53;98341.78;;;9.85;100.00
3444;BME280;1736;52.068;6.968;2023-03-14T08:24:20;98338.31;;;9.85;100.00
3444;BME280;1736;52.068;6.968;2023-03-14T08:26:46;98334.50;;;9.87;100.00
3444;BME280;1736;52.068;6.968;2023-03-14T08:29:14;98346.63;;;9.82;100.00
3444;BME280;1736;52.068;6.968;2023-03-14T08:31:41;98347.81;;;9.79;100.00
3444;BME280;1736;52.068;6.968;2023-03-14T08:34:08;98346.41;;;9.69;100.00
3444;BME280;1736;52.068;6.968;2023-03-14T08:36:34;98355.00;;;9.71;100.00
3444;BME280;1736;52.068;6.968;2023-03-14T08:39:01;98350.19;;;9.74;100.00
3444;BME280;1736;52.068;6.968;2023-03-14T08:41:29;98356.56;;;9.80;100.00
3444;BME280;1736;52.068;6.968;2023-03-14T08:43:55;98363.69;;;9.79;100.00
3444;BME280;1736;52.068;6.968;2023-03-14T08:46:23;98426.31;;;9.72;100.00
3444;BME280;1736;52.068;6.968;2023-03-14T08:48:50;98453.22;;;8.92;100.00
3444;BME280;1736;52.068;6.968;2023-03-14T08:51:17;98469.88;;;8.54;100.00
3444;BME280;1736;52.068;6.968;2023-03-14T08:53:43;98463.63;;;8.15;100.00
3444;BME280;1736;52.068;6.968;2023-03-14T08:56:10;98474.56;;;8.04;100.00
3444;BME280;1736;52.068;6.968;2023-03-14T08:58:36;98487.09;;;8.02;100.00
3444;BME280;1736;52.068;6.968;2023-03-14T09:01:04;98493.38;;;8.01;100.00
3444;BME280;1736;52.068;6.968;2023-03-14T09:03:32;98505.56;;;7.86;100.00
3444;BME280;1736;52.068;6.968;2023-03-14T09:06:02;98519.44;;;7.88;100.00
3444;BME280;1736;52.068;6.968;2023-03-14T09:08:29;98518.72;;;7.70;100.00
3444;BME280;1736;52.068;6.968;2023-03-14T09:10:56;98517.06;;;7.61;100.00
3444;BME280;1736;52.068;6.968;2023-03-14T09:13:22;98530.56;;;7.58;100.00
3444;BME280;1736;52.068;6.968;2023-03-14T09:15:50;98532.06;;;7.53;100.00
3444;BME280;1736;52.068;6.968;2023-03-14T09:18:17;98539.63;;;7.48;100.00
3444;BME280;1736;52.068;6.968;2023-03-14T09:20:46;98544.72;;;7.41;100.00
3444;BME280;1736;52.068;6.968;2023-03-14T09:23:13;98558.06;;;7.40;100.00
3444;BME280;1736;52.068;6.968;2023-03-14T09:25:39;98567.47;;;7.34;100.00
3444;BME280;1736;52.068;6.968;2023-03-14T09:28:06;98574.06;;;7.38;100.00
3444;BME280;1736;52.068;6.968;2023-03-14T09:30:33;98578.38;;;7.39;100.00
3444;BME280;1736;52.068;6.968;2023-03-14T09:32:59;98595.81;;;7.32;100.00
3444;BME280;1736;52.068;6.968;2023-03-14T09:35:26;98614.13;;;7.34;100.00
3444;BME280;1736;52.068;6.968;2023-03-14T09:37:54;98629.41;;;7.22;100.00
3444;BME280;1736;52.068;6.968;2023-03-14T09:40:21;98637.88;;;7.08;100.00
3444;BME280;1736;52.068;6.968;2023-03-14T09:42:51;98657.81;;;6.85;100.00
3444;BME280;1736;52.068;6.968;2023-03-14T09:45:25;98674.81;;;6.65;100.00
3444;BME280;1736;52.068;6.968;2023-03-14T09:47:53;98688.56;;;6.42;100.00
3444;BME280;1736;52.068;6.968;2023-03-14T09:50:20;98704.16;;;6.35;100.00
3444;BME280;1736;52.068;6.968;2023-03-14T09:52:49;98718.31;;;6.07;100.00
3444;BME280;1736;52.068;6.968;2023-03-14T09:55:20;98735.88;;;5.89;100.00
3444;BME280;1736;52.068;6.968;2023-03-14T09:57:49;98754.88;;;5.83;100.00
3444;BME280;1736;52.068;6.968;2023-03-14T10:00:19;98760.59;;;5.69;100.00
3444;BME280;1736;52.068;6.968;2023-03-14T10:02:51;98770.41;;;5.67;100.00
3444;BME280;1736;52.068;6.968;2023-03-14T10:05:21;98787.56;;;5.71;100.00
3444;BME280;1736;52.068;6.968;2023-03-14T10:07:48;98807.72;;;5.53;100.00
3444;BME280;1736;52.068;6.968;2023-03-14T10:10:17;98814.22;;;5.49;100.00
3444;BME280;1736;52.068;6.968;2023-03-14T10:12:47;98834.56;;;5.47;100.00
3444;BME280;1736;52.068;6.968;2023-03-14T10:15:23;98847.44;;;5.50;100.00
3444;BME280;1736;52.068;6.968;2023-03-14T10:17:51;98847.56;;;5.58;100.00
3444;BME280;1736;52.068;6.968;2023-03-14T10:20:32;98869.03;;;5.63;100.00
3444;BME280;1736;52.068;6.968;2023-03-14T10:23:00;98879.56;;;5.63;100.00
3444;BME280;1736;52.068;6.968;2023-03-14T10:25:30;98900.19;;;5.68;100.00
3444;BME280;1736;52.068;6.968;2023-03-14T10:27:58;98913.91;;;5.52;100.00
3444;BME280;1736;52.068;6.968;2023-03-14T10:30:37;98919.44;;;5.49;100.00
3444;BME280;1736;52.068;6.968;2023-03-14T10:33:10;98939.66;;;5.58;100.00
3444;BME280;1736;52.068;6.968;2023-03-14T10:35:37;98935.50;;;5.65;98.24
3444;BME280;1736;52.068;6.968;2023-03-14T10:38:04;98947.28;;;5.80;96.69
3444;BME280;1736;52.068;6.968;2023-03-14T10:40:32;98958.91;;;6.06;96.83
3444;BME280;1736;52.068;6.968;2023-03-14T10:43:04;98968.63;;;5.87;95.26
3444;BME280;1736;52.068;6.968;2023-03-14T10:45:34;98977.78;;;5.92;95.33
3444;BME280;1736;52.068;6.968;2023-03-14T10:48:21;98994.81;;;5.88;93.95
3444;BME280;1736;52.068;6.968;2023-03-14T10:50:57;99009.34;;;6.02;94.38
3444;BME280;1736;52.068;6.968;2023-03-14T10:53:24;99020.97;;;5.99;93.57
3444;BME280;1736;52.068;6.968;2023-03-14T10:55:51;99022.09;;;6.06;93.92
3444;BME280;1736;52.068;6.968;2023-03-14T10:58:24;99037.34;;;6.03;91.93
3444;BME280;1736;52.068;6.968;2023-03-14T11:01:01;99041.63;;;5.94;90.64
3444;BME280;1736;52.068;6.968;2023-03-14T11:03:31;99056.19;;;5.98;91.14
3444;BME280;1736;52.068;6.968;2023-03-14T11:06:06;99068.50;;;5.98;91.91
3444;BME280;1736;52.068;6.968;2023-03-14T11:08:43;99075.72;;;5.96;93.09
3444;BME280;1736;52.068;6.968;2023-03-14T11:11:18;99079.75;;;6.00;94.88
3444;BME280;1736;52.068;6.968;2023-03-14T11:13:57;99090.13;;;6.20;93.70
3444;BME280;1736;52.068;6.968;2023-03-14T11:16:35;99093.06;;;6.27;93.06
3444;BME280;1736;52.068;6.968;2023-03-14T11:19:15;99088.72;;;6.45;90.37
3444;BME280;1736;52.068;6.968;2023-03-14T11:21:50;99106.69;;;6.78;90.68
3444;BME280;1736;52.068;6.968;2023-03-14T11:24:37;99110.69;;;6.91;88.26
3444;BME280;1736;52.068;6.968;2023-03-14T11:27:12;99119.47;;;6.82;89.38
3444;BME280;1736;52.068;6.968;2023-03-14T11:29:51;99133.91;;;6.78;87.02
3444;BME280;1736;52.068;6.968;2023-03-14T11:32:28;99130.94;;;6.91;87.51
3444;BME280;1736;52.068;6.968;2023-03-14T11:34:59;99137.69;;;7.12;87.69
3444;BME280;1736;52.068;6.968;2023-03-14T11:37:33;99154.00;;;7.25;87.58
3444;BME280;1736;52.068;6.968;2023-03-14T11:40:10;99150.34;;;7.09;85.22
3444;BME280;1736;52.068;6.968;2023-03-14T11:42:42;99170.47;;;7.00;86.51
3444;BME280;1736;52.068;6.968;2023-03-14T11:45:17;99191.56;;;6.91;87.61
3444;BME280;1736;52.068;6.968;2023-03-14T11:47:46;99221.84;;;6.58;92.49
3444;BME280;1736;52.068;6.968;2023-03-14T11:50:16;99243.88;;;5.29;96.11
3444;BME280;1736;52.068;6.968;2023-03-14T11:52:48;99243.72;;;5.00;96.02
3444;BME280;1736;52.068;6.968;2023-03-14T11:55:19;99235.63;;;4.92;97.68
3444;BME280;1736;52.068;6.968;2023-03-14T11:57:48;99235.88;;;5.10;99.93
3444;BME280;1736;52.068;6.968;2023-03-14T12:00:19;99246.25;;;5.11;99.84
3444;BME280;1736;52.068;6.968;2023-03-14T12:02:51;99258.38;;;5.44;99.12
3444;BME280;1736;52.068;6.968;2023-03-14T12:05:36;99252.50;;;5.61;95.21
3444;BME280;1736;52.068;6.968;2023-03-14T12:11:12;99269.38;;;6.19;91.49
3444;BME280;1736;52.068;6.968;2023-03-14T12:13:41;99277.03;;;6.41;91.28
3444;BME280;1736;52.068;6.968;2023-03-14T12:16:33;99294.81;;;6.58;89.31
3444;BME280;1736;52.068;6.968;2023-03-14T12:19:35;99294.53;;;6.51;84.02
3444;BME280;1736;52.068;6.968;2023-03-14T12:22:24;99311.47;;;6.58;84.83
3444;BME280;1736;52.068;6.968;2023-03-14T12:24:55;99312.00;;;6.52;88.43
3444;BME280;1736;52.068;6.968;2023-03-14T12:27:47;99310.59;;;6.39;87.17
3444;BME280;1736;52.068;6.968;2023-03-14T12:30:24;99305.81;;;6.23;86.80
3444;BME280;1736;52.068;6.968;2023-03-14T12:36:31;99327.53;;;6.55;86.49
3444;BME280;1736;52.068;6.968;2023-03-14T12:39:21;99327.59;;;6.84;87.73
3444;BME280;1736;52.068;6.968;2023-03-14T12:42:02;99338.13;;;7.03;85.29
3444;BME280;1736;52.068;6.968;2023-03-14T12:44:41;99346.19;;;7.20;85.21
3444;BME280;1736;52.068;6.968;2023-03-14T12:50:19;99361.75;;;7.23;80.49
3444;BME280;1736;52.068;6.968;2023-03-14T12:55:55;99373.97;;;7.34;74.70
3444;BME280;1736;52.068;6.968;2023-03-14T12:58:27;99395.75;;;7.36;72.24
3444;BME280;1736;52.068;6.968;2023-03-14T13:00:58;99404.38;;;7.28;63.74
3444;BME280;1736;52.068;6.968;2023-03-14T13:03:36;99407.84;;;7.38;64.26
3444;BME280;1736;52.068;6.968;2023-03-14T13:06:05;99418.41;;;7.38;64.74
3444;BME280;1736;52.068;6.968;2023-03-14T13:08:35;99425.47;;;7.28;62.57
3444;BME280;1736;52.068;6.968;2023-03-14T13:11:06;99436.31;;;7.25;64.28
3444;BME280;1736;52.068;6.968;2023-03-14T13:13:34;99441.19;;;7.30;63.46
3444;BME280;1736;52.068;6.968;2023-03-14T13:16:02;99440.63;;;7.26;62.61
3444;BME280;1736;52.068;6.968;2023-03-14T13:18:34;99449.75;;;7.03;62.04
3444;BME280;1736;52.068;6.968;2023-03-14T13:21:05;99465.56;;;7.03;62.82
3444;BME280;1736;52.068;6.968;2023-03-14T13:23:36;99467.06;;;6.96;62.26
3444;BME280;1736;52.068;6.968;2023-03-14T13:26:09;99481.09;;;6.97;61.31
3444;BME280;1736;52.068;6.968;2023-03-14T13:28:38;99488.34;;;7.04;62.50
3444;BME280;1736;52.068;6.968;2023-03-14T13:31:05;99500.69;;;6.94;59.26
3444;BME280;1736;52.068;6.968;2023-03-14T13:33:33;99511.56;;;7.10;60.61
3444;BME280;1736;52.068;6.968;2023-03-14T13:36:02;99506.31;;;7.29;60.20
3444;BME280;1736;52.068;6.968;2023-03-14T13:38:31;99510.66;;;7.49;57.54
3444;BME280;1736;52.068;6.968;2023-03-14T13:41:00;99519.53;;;7.39;56.43
3444;BME280;1736;52.068;6.968;2023-03-14T13:43:31;99523.97;;;7.48;56.55
3444;BME280;1736;52.068;6.968;2023-03-14T13:46:02;99539.16;;;7.74;56.48
3444;BME280;1736;52.068;6.968;2023-03-14T13:48:30;99544.44;;;7.93;57.03